createdAt,value
2017-01-27T00:00:16.795Z,22.93
2017-01-27T00:00:36.560Z,22.93
2017-01-27T00:00:56.981Z,22.92
2017-01-27T00:01:17.378Z,22.92
2017-01-27T00:01:37.760Z,22.86
2017-01-27T00:01:56.889Z,22.86
2017-01-27T00:02:17.319Z,22.92
2017-01-27T00:02:37.769Z,22.92
2017-01-27T00:02:56.879Z,22.9
2017-01-27T00:03:17.273Z,22.93
2017-01-27T00:03:37.660Z,22.89
2017-01-27T00:03:57.392Z,22.9
2017-01-27T00:04:17.728Z,22.89
2017-01-27T00:04:38.148Z,22.93
2017-01-27T00:04:57.893Z,22.89
2017-01-27T00:05:18.341Z,22.9
2017-01-27T00:05:38.744Z,22.93
2017-01-27T00:05:58.510Z,22.9
2017-01-27T00:06:18.926Z,22.93
2017-01-27T00:06:38.024Z,22.97
2017-01-27T00:06:57.764Z,22.89
2017-01-27T00:07:18.163Z,22.92
2017-01-27T00:07:38.581Z,22.99
2017-01-27T00:07:57.697Z,23.05
2017-01-27T00:08:18.141Z,23.08
2017-01-27T00:08:38.519Z,22.97
2017-01-27T00:08:58.952Z,23.05
2017-01-27T00:09:19.363Z,23
2017-01-27T00:09:39.127Z,22.9
2017-01-27T00:09:59.563Z,22.89
2017-01-27T00:10:20.149Z,22.89
2017-01-27T00:10:40.578Z,22.87
2017-01-27T00:11:00.989Z,22.89
2017-01-27T00:11:20.717Z,22.93
2017-01-27T00:11:41.147Z,22.9
2017-01-27T00:12:01.592Z,22.84
2017-01-27T00:12:22.377Z,22.87
2017-01-27T00:12:42.793Z,22.9
2017-01-27T00:13:03.177Z,22.77
2017-01-27T00:13:23.590Z,22.68
2017-01-27T00:13:44.000Z,22.67
2017-01-27T00:14:04.396Z,22.71
2017-01-27T00:14:24.807Z,22.71
2017-01-27T00:14:45.239Z,22.75
2017-01-27T00:15:05.002Z,22.71
2017-01-27T00:15:25.396Z,22.75
2017-01-27T00:15:45.811Z,22.68
2017-01-27T00:16:06.856Z,22.72
2017-01-27T00:16:25.999Z,22.71
2017-01-27T00:16:46.364Z,22.75
2017-01-27T00:17:06.788Z,22.72
2017-01-27T00:17:27.188Z,22.77
2017-01-27T00:17:47.607Z,22.78
2017-01-27T00:18:07.396Z,22.75
2017-01-27T00:18:27.793Z,22.77
2017-01-27T00:18:48.175Z,22.79
2017-01-27T00:19:08.577Z,22.75
2017-01-27T00:19:28.340Z,22.74
2017-01-27T00:19:48.095Z,22.81
2017-01-27T00:20:08.718Z,22.78
2017-01-27T00:20:29.090Z,22.77
2017-01-27T00:20:49.502Z,22.87
2017-01-27T00:21:09.235Z,22.81
2017-01-27T00:21:29.008Z,22.86
2017-01-27T00:21:49.431Z,22.79
2017-01-27T00:22:09.865Z,22.75
2017-01-27T00:22:29.656Z,22.77
2017-01-27T00:22:50.043Z,22.75
2017-01-27T00:23:10.466Z,22.72
2017-01-27T00:23:30.876Z,22.78
2017-01-27T00:23:51.324Z,22.77
2017-01-27T00:24:11.091Z,22.75
2017-01-27T00:24:31.497Z,22.74
2017-01-27T00:24:51.901Z,22.83
2017-01-27T00:25:11.648Z,22.79
2017-01-27T00:25:32.068Z,22.89
2017-01-27T00:25:52.493Z,22.89
2017-01-27T00:26:11.587Z,22.74
2017-01-27T00:26:31.332Z,22.87
2017-01-27T00:26:51.751Z,22.79
2017-01-27T00:27:11.470Z,22.87
2017-01-27T00:27:31.239Z,22.75
2017-01-27T00:27:51.651Z,22.86
2017-01-27T00:28:11.382Z,22.78
2017-01-27T00:28:31.789Z,22.77
2017-01-27T00:28:52.201Z,22.79
2017-01-27T00:29:12.591Z,22.75
2017-01-27T00:29:32.341Z,22.75
2017-01-27T00:29:52.792Z,22.78
2017-01-27T00:30:13.208Z,22.81
2017-01-27T00:30:32.963Z,22.79
2017-01-27T00:30:52.732Z,22.75
2017-01-27T00:31:13.166Z,22.72
2017-01-27T00:31:33.549Z,22.77
2017-01-27T00:31:53.944Z,22.74
2017-01-27T00:32:14.339Z,22.74
2017-01-27T00:32:34.766Z,22.75
2017-01-27T00:32:55.155Z,22.77
2017-01-27T00:33:15.548Z,22.75
2017-01-27T00:33:35.944Z,22.71
2017-01-27T00:33:56.322Z,22.77
2017-01-27T00:34:15.468Z,22.75
2017-01-27T00:34:35.940Z,22.71
2017-01-27T00:34:55.091Z,22.72
2017-01-27T00:35:14.824Z,22.78
2017-01-27T00:35:35.232Z,22.71
2017-01-27T00:35:55.752Z,22.71
2017-01-27T00:36:16.147Z,22.69
2017-01-27T00:36:36.545Z,22.68
2017-01-27T00:36:56.947Z,22.71
2017-01-27T00:37:17.420Z,22.65
2017-01-27T00:37:37.827Z,22.75
2017-01-27T00:37:58.287Z,22.72
2017-01-27T00:38:18.063Z,22.75
2017-01-27T00:38:38.463Z,22.77
2017-01-27T00:38:58.856Z,22.72
2017-01-27T00:39:18.634Z,22.69
2017-01-27T00:39:39.031Z,22.77
2017-01-27T00:39:58.784Z,22.71
2017-01-27T00:40:19.192Z,22.72
2017-01-27T00:40:39.591Z,22.65
2017-01-27T00:40:59.999Z,22.68
2017-01-27T00:41:20.418Z,22.77
2017-01-27T00:41:40.825Z,22.67
2017-01-27T00:42:01.251Z,22.68
2017-01-27T00:42:21.657Z,22.67
2017-01-27T00:42:42.055Z,22.69
2017-01-27T00:43:02.460Z,22.65
2017-01-27T00:43:22.222Z,22.74
2017-01-27T00:43:42.006Z,22.68
2017-01-27T00:44:02.410Z,22.65
2017-01-27T00:44:22.829Z,22.72
2017-01-27T00:44:43.338Z,22.65
2017-01-27T00:45:03.746Z,22.71
2017-01-27T00:45:24.108Z,22.74
2017-01-27T00:45:44.503Z,22.63
2017-01-27T00:46:04.968Z,22.69
2017-01-27T00:46:24.747Z,22.67
2017-01-27T00:46:45.558Z,22.65
2017-01-27T00:47:05.918Z,22.63
2017-01-27T00:47:25.036Z,22.67
2017-01-27T00:47:45.416Z,22.62
2017-01-27T00:48:05.841Z,22.67
2017-01-27T00:48:25.563Z,22.56
2017-01-27T00:48:45.964Z,22.62
2017-01-27T00:49:05.720Z,22.63
2017-01-27T00:49:26.099Z,22.53
2017-01-27T00:49:46.484Z,22.56
2017-01-27T00:50:06.914Z,22.57
2017-01-27T00:50:25.376Z,22.59
2017-01-27T00:50:45.143Z,22.53
2017-01-27T00:51:05.566Z,22.54
2017-01-27T00:51:25.330Z,22.56
2017-01-27T00:51:45.079Z,22.6
2017-01-27T00:52:05.535Z,22.59
2017-01-27T00:52:25.265Z,22.62
2017-01-27T00:52:45.660Z,22.59
2017-01-27T00:53:06.016Z,22.53
2017-01-27T00:53:25.779Z,22.42
2017-01-27T00:53:46.166Z,22.44
2017-01-27T00:54:06.579Z,22.49
2017-01-27T00:54:27.027Z,22.47
2017-01-27T00:54:46.788Z,22.52
2017-01-27T00:55:05.917Z,22.54
2017-01-27T00:55:25.719Z,22.42
2017-01-27T00:55:46.153Z,22.42
2017-01-27T00:56:06.547Z,22.44
2017-01-27T00:56:25.685Z,22.47
2017-01-27T00:56:46.068Z,22.42
2017-01-27T00:57:06.455Z,22.44
2017-01-27T00:57:26.878Z,22.44
2017-01-27T00:57:47.311Z,22.46
2017-01-27T00:58:07.729Z,22.53
2017-01-27T00:58:28.163Z,22.52
2017-01-27T00:58:48.530Z,22.42
2017-01-27T00:59:08.311Z,22.42
2017-01-27T00:59:28.714Z,22.44
2017-01-27T00:59:49.114Z,22.46
2017-01-27T01:00:09.504Z,22.47
2017-01-27T01:00:29.924Z,22.42
2017-01-27T01:00:49.657Z,22.5
2017-01-27T01:01:10.182Z,22.47
2017-01-27T01:01:29.928Z,22.37
2017-01-27T01:01:50.389Z,22.38
2017-01-27T01:02:10.151Z,22.38
2017-01-27T01:02:29.270Z,22.39
2017-01-27T01:02:49.021Z,22.46
2017-01-27T01:03:09.452Z,22.38
2017-01-27T01:03:29.213Z,22.37
2017-01-27T01:03:49.623Z,22.42
2017-01-27T01:04:08.738Z,22.35
2017-01-27T01:04:27.915Z,22.32
2017-01-27T01:04:48.299Z,22.47
2017-01-27T01:05:08.072Z,22.49
2017-01-27T01:05:27.831Z,22.52
2017-01-27T01:05:48.284Z,22.38
2017-01-27T01:06:08.683Z,22.44
2017-01-27T01:06:29.049Z,22.47
2017-01-27T01:06:48.792Z,22.44
2017-01-27T01:07:09.190Z,22.46
2017-01-27T01:07:28.943Z,22.47
2017-01-27T01:07:49.343Z,22.52
2017-01-27T01:08:09.721Z,22.46
2017-01-27T01:08:29.477Z,22.34
2017-01-27T01:08:49.246Z,22.46
2017-01-27T01:09:09.667Z,22.38
2017-01-27T01:09:30.091Z,22.41
2017-01-27T01:09:50.488Z,22.37
2017-01-27T01:10:09.152Z,22.44
2017-01-27T01:10:28.930Z,22.46
2017-01-27T01:10:49.362Z,22.46
2017-01-27T01:11:09.097Z,22.49
2017-01-27T01:11:28.212Z,22.49
2017-01-27T01:11:48.630Z,22.42
2017-01-27T01:12:08.375Z,22.46
2017-01-27T01:12:28.799Z,22.52
2017-01-27T01:12:48.566Z,22.47
2017-01-27T01:13:08.958Z,22.52
2017-01-27T01:13:28.778Z,22.57
2017-01-27T01:13:49.162Z,22.47
2017-01-27T01:14:09.571Z,22.52
2017-01-27T01:14:29.965Z,22.46
2017-01-27T01:14:50.379Z,22.49
2017-01-27T01:15:10.782Z,22.52
2017-01-27T01:15:31.188Z,22.52
2017-01-27T01:15:51.070Z,22.47
2017-01-27T01:16:10.829Z,22.49
2017-01-27T01:16:31.211Z,22.49
2017-01-27T01:16:51.615Z,22.56
2017-01-27T01:17:11.375Z,22.54
2017-01-27T01:17:31.125Z,22.56
2017-01-27T01:17:51.547Z,22.59
2017-01-27T01:18:11.319Z,22.59
2017-01-27T01:18:31.702Z,22.54
2017-01-27T01:18:52.139Z,22.46
2017-01-27T01:19:12.537Z,22.54
2017-01-27T01:19:32.288Z,22.56
2017-01-27T01:19:52.675Z,22.6
2017-01-27T01:20:13.090Z,22.6
2017-01-27T01:20:32.852Z,22.59
2017-01-27T01:20:53.248Z,22.62
2017-01-27T01:21:13.645Z,22.69
2017-01-27T01:21:33.423Z,22.63
2017-01-27T01:21:53.857Z,22.62
2017-01-27T01:22:13.671Z,22.65
2017-01-27T01:22:34.074Z,22.67
2017-01-27T01:22:54.467Z,22.62
2017-01-27T01:23:14.213Z,22.68
2017-01-27T01:23:34.657Z,22.68
2017-01-27T01:23:55.052Z,22.69
2017-01-27T01:24:15.474Z,22.72
2017-01-27T01:24:35.895Z,22.65
2017-01-27T01:24:56.305Z,22.65
2017-01-27T01:25:16.676Z,22.68
2017-01-27T01:25:36.446Z,22.71
2017-01-27T01:25:56.235Z,22.78
2017-01-27T01:26:15.357Z,22.75
2017-01-27T01:26:35.778Z,22.77
2017-01-27T01:26:56.198Z,22.83
2017-01-27T01:27:16.622Z,22.78
2017-01-27T01:27:36.378Z,22.75
2017-01-27T01:27:56.789Z,22.75
2017-01-27T01:28:16.512Z,22.74
2017-01-27T01:28:36.907Z,22.75
2017-01-27T01:28:56.668Z,22.86
2017-01-27T01:29:17.096Z,22.74
2017-01-27T01:29:37.565Z,22.74
2017-01-27T01:29:57.985Z,22.79
2017-01-27T01:30:18.436Z,22.79
2017-01-27T01:30:38.801Z,22.75
2017-01-27T01:30:59.171Z,22.74
2017-01-27T01:31:19.571Z,22.78
2017-01-27T01:31:39.957Z,22.69
2017-01-27T01:32:00.349Z,22.78
2017-01-27T01:32:20.745Z,22.78
2017-01-27T01:32:41.149Z,22.75
2017-01-27T01:33:00.932Z,22.74
2017-01-27T01:33:21.370Z,22.79
2017-01-27T01:33:41.802Z,22.75
2017-01-27T01:34:02.184Z,22.79
2017-01-27T01:34:22.575Z,22.74
2017-01-27T01:34:43.014Z,22.81
2017-01-27T01:35:03.449Z,22.77
2017-01-27T01:35:22.540Z,22.74
2017-01-27T01:35:43.007Z,22.77
2017-01-27T01:36:03.449Z,22.83
2017-01-27T01:36:23.873Z,22.83
2017-01-27T01:36:44.280Z,22.75
2017-01-27T01:37:03.389Z,22.77
2017-01-27T01:37:23.736Z,22.75
2017-01-27T01:37:44.127Z,22.77
2017-01-27T01:38:04.557Z,22.87
2017-01-27T01:38:24.962Z,22.79
2017-01-27T01:38:45.476Z,22.75
2017-01-27T01:39:05.893Z,22.75
2017-01-27T01:39:25.641Z,22.62
2017-01-27T01:39:46.055Z,22.72
2017-01-27T01:40:06.472Z,22.69
2017-01-27T01:40:25.595Z,22.67
2017-01-27T01:40:45.958Z,22.68
2017-01-27T01:41:06.423Z,22.78
2017-01-27T01:41:26.162Z,22.69
2017-01-27T01:41:46.588Z,22.67
2017-01-27T01:42:07.003Z,22.67
2017-01-27T01:42:27.420Z,22.69
2017-01-27T01:42:47.174Z,22.63
2017-01-27T01:43:07.584Z,22.69
2017-01-27T01:43:28.004Z,22.75
2017-01-27T01:43:47.769Z,22.75
2017-01-27T01:44:08.201Z,22.74
2017-01-27T01:44:28.600Z,22.72
2017-01-27T01:44:48.990Z,22.75
2017-01-27T01:45:09.443Z,22.69
2017-01-27T01:45:29.209Z,22.77
2017-01-27T01:45:49.644Z,22.72
2017-01-27T01:46:10.078Z,22.62
2017-01-27T01:46:29.240Z,22.79
2017-01-27T01:46:49.632Z,22.79
2017-01-27T01:47:09.996Z,22.78
2017-01-27T01:47:29.799Z,22.74
2017-01-27T01:47:50.185Z,22.69
2017-01-27T01:48:10.610Z,22.77
2017-01-27T01:48:30.997Z,22.75
2017-01-27T01:48:51.387Z,22.67
2017-01-27T01:49:11.775Z,22.63
2017-01-27T01:49:32.155Z,22.6
2017-01-27T01:49:52.543Z,22.69
2017-01-27T01:50:11.662Z,22.71
2017-01-27T01:50:32.087Z,22.68
2017-01-27T01:50:52.507Z,22.6
2017-01-27T01:51:12.894Z,22.65
2017-01-27T01:51:33.276Z,22.63
2017-01-27T01:51:53.666Z,22.68
2017-01-27T01:52:14.112Z,22.68
2017-01-27T01:52:33.247Z,22.69
2017-01-27T01:52:53.662Z,22.68
2017-01-27T01:53:14.098Z,22.71
2017-01-27T01:53:33.824Z,22.68
2017-01-27T01:53:53.587Z,22.69
2017-01-27T01:54:14.449Z,22.67
2017-01-27T01:54:35.440Z,22.63
2017-01-27T01:54:55.834Z,22.67
2017-01-27T01:55:15.573Z,22.67
2017-01-27T01:55:35.287Z,22.71
2017-01-27T01:55:55.939Z,22.63
2017-01-27T01:56:16.301Z,22.67
2017-01-27T01:56:36.688Z,22.67
2017-01-27T01:56:56.452Z,22.67
2017-01-27T01:57:16.839Z,22.69
2017-01-27T01:57:36.597Z,22.59
2017-01-27T01:57:57.035Z,22.54
2017-01-27T01:58:17.432Z,22.65
2017-01-27T01:58:37.150Z,22.68
2017-01-27T01:58:57.559Z,22.69
2017-01-27T01:59:17.972Z,22.71
2017-01-27T01:59:38.402Z,22.74
2017-01-27T01:59:58.845Z,22.69
2017-01-27T02:00:18.585Z,22.71
2017-01-27T02:00:38.964Z,22.74
2017-01-27T02:00:59.403Z,22.74
2017-01-27T02:01:19.156Z,22.65
2017-01-27T02:01:39.563Z,22.65
2017-01-27T02:01:59.969Z,22.74
2017-01-27T02:02:19.780Z,22.86
2017-01-27T02:02:40.201Z,22.79
2017-01-27T02:03:00.010Z,22.78
2017-01-27T02:03:20.425Z,22.84
2017-01-27T02:03:40.826Z,22.81
2017-01-27T02:04:01.218Z,22.89
2017-01-27T02:04:21.674Z,22.84
2017-01-27T02:04:42.097Z,22.9
2017-01-27T02:05:02.503Z,22.78
2017-01-27T02:05:22.901Z,22.9
2017-01-27T02:05:43.288Z,23
2017-01-27T02:06:04.023Z,22.83
2017-01-27T02:06:24.442Z,22.83
2017-01-27T02:06:44.219Z,22.87
2017-01-27T02:07:03.986Z,22.92
2017-01-27T02:07:24.382Z,22.9
2017-01-27T02:07:44.770Z,22.9
2017-01-27T02:08:05.209Z,22.79
2017-01-27T02:08:25.582Z,22.92
2017-01-27T02:08:45.966Z,22.92
2017-01-27T02:09:05.782Z,22.89
2017-01-27T02:09:26.217Z,22.9
2017-01-27T02:09:45.964Z,23.02
2017-01-27T02:10:06.364Z,22.99
2017-01-27T02:10:25.493Z,22.93
2017-01-27T02:10:45.892Z,22.99
2017-01-27T02:11:06.296Z,22.92
2017-01-27T02:11:26.068Z,22.87
2017-01-27T02:11:46.446Z,22.89
2017-01-27T02:12:06.896Z,22.96
2017-01-27T02:12:27.299Z,23.02
2017-01-27T02:12:47.723Z,23.02
2017-01-27T02:13:08.157Z,22.94
2017-01-27T02:13:28.570Z,22.99
2017-01-27T02:13:48.971Z,22.94
2017-01-27T02:14:09.393Z,22.83
2017-01-27T02:14:29.834Z,22.83
2017-01-27T02:14:50.264Z,22.83
2017-01-27T02:15:10.680Z,22.87
2017-01-27T02:15:31.070Z,22.86
2017-01-27T02:15:50.853Z,22.79
2017-01-27T02:16:09.985Z,22.84
2017-01-27T02:16:29.758Z,22.9
2017-01-27T02:16:50.190Z,22.81
2017-01-27T02:17:10.557Z,22.74
2017-01-27T02:17:30.977Z,22.87
2017-01-27T02:17:51.379Z,22.9
2017-01-27T02:18:11.865Z,22.83
2017-01-27T02:18:32.278Z,22.81
2017-01-27T02:18:52.676Z,22.87
2017-01-27T02:19:13.076Z,22.77
2017-01-27T02:19:32.838Z,22.87
2017-01-27T02:19:53.260Z,22.78
2017-01-27T02:20:13.678Z,22.71
2017-01-27T02:20:33.451Z,22.72
2017-01-27T02:20:54.483Z,22.71
2017-01-27T02:21:14.871Z,22.79
2017-01-27T02:21:35.282Z,22.77
2017-01-27T02:21:55.495Z,22.69
2017-01-27T02:22:15.884Z,22.72
2017-01-27T02:22:36.297Z,22.83
2017-01-27T02:22:56.737Z,22.77
2017-01-27T02:23:17.162Z,22.72
2017-01-27T02:23:37.571Z,22.78
2017-01-27T02:23:57.352Z,22.74
2017-01-27T02:24:17.734Z,22.75
2017-01-27T02:24:38.127Z,22.74
2017-01-27T02:24:57.931Z,22.78
2017-01-27T02:25:17.684Z,22.77
2017-01-27T02:25:37.467Z,22.74
2017-01-27T02:25:57.256Z,22.78
2017-01-27T02:26:17.703Z,22.72
2017-01-27T02:26:38.106Z,22.74
2017-01-27T02:26:57.794Z,22.75
2017-01-27T02:27:18.233Z,22.75
2017-01-27T02:27:38.624Z,22.81
2017-01-27T02:27:59.051Z,22.72
2017-01-27T02:28:19.471Z,22.74
2017-01-27T02:28:39.845Z,22.69
2017-01-27T02:29:00.216Z,22.75
2017-01-27T02:29:19.299Z,22.79
2017-01-27T02:29:39.716Z,22.78
2017-01-27T02:30:00.133Z,22.75
2017-01-27T02:30:19.246Z,22.75
2017-01-27T02:30:39.644Z,22.77
2017-01-27T02:31:00.039Z,22.86
2017-01-27T02:31:20.415Z,22.84
2017-01-27T02:31:40.190Z,22.89
2017-01-27T02:31:59.979Z,22.86
2017-01-27T02:32:19.941Z,22.79
2017-01-27T02:32:40.768Z,22.79
2017-01-27T02:33:01.168Z,22.86
2017-01-27T02:33:21.627Z,22.81
2017-01-27T02:33:40.737Z,22.78
2017-01-27T02:34:01.134Z,22.87
2017-01-27T02:34:21.517Z,22.81
2017-01-27T02:34:41.944Z,22.78
2017-01-27T02:35:01.688Z,22.79
2017-01-27T02:35:22.102Z,22.69
2017-01-27T02:35:42.517Z,22.79
2017-01-27T02:36:02.926Z,22.74
2017-01-27T02:36:23.339Z,22.78
2017-01-27T02:36:43.749Z,22.72
2017-01-27T02:37:04.164Z,22.74
2017-01-27T02:37:24.581Z,22.75
2017-01-27T02:37:44.335Z,22.75
2017-01-27T02:38:04.723Z,22.75
2017-01-27T02:38:24.458Z,22.62
2017-01-27T02:38:44.834Z,22.72
2017-01-27T02:39:05.213Z,22.71
2017-01-27T02:39:25.619Z,22.65
2017-01-27T02:39:46.040Z,22.71
2017-01-27T02:40:06.454Z,22.71
2017-01-27T02:40:26.270Z,22.71
2017-01-27T02:40:46.709Z,22.71
2017-01-27T02:41:07.216Z,22.71
2017-01-27T02:41:27.638Z,22.69
2017-01-27T02:41:48.578Z,22.62
2017-01-27T02:42:09.038Z,22.75
2017-01-27T02:42:29.414Z,22.65
2017-01-27T02:42:49.831Z,22.69
2017-01-27T02:43:10.215Z,22.67
2017-01-27T02:43:30.009Z,22.68
2017-01-27T02:43:49.758Z,22.68
2017-01-27T02:44:10.161Z,22.63
2017-01-27T02:44:30.576Z,22.65
2017-01-27T02:44:50.327Z,22.57
2017-01-27T02:45:10.719Z,22.56
2017-01-27T02:45:31.150Z,22.62
2017-01-27T02:45:51.516Z,22.57
2017-01-27T02:46:10.636Z,22.67
2017-01-27T02:46:30.376Z,22.53
2017-01-27T02:46:50.146Z,22.54
2017-01-27T02:47:10.552Z,22.56
2017-01-27T02:47:30.990Z,22.59
2017-01-27T02:47:51.393Z,22.63
2017-01-27T02:48:11.790Z,22.57
2017-01-27T02:48:32.149Z,22.56
2017-01-27T02:48:51.905Z,22.57
2017-01-27T02:49:11.667Z,22.63
2017-01-27T02:49:32.093Z,22.62
2017-01-27T02:49:52.501Z,22.57
2017-01-27T02:50:11.612Z,22.57
2017-01-27T02:50:31.406Z,22.57
2017-01-27T02:50:51.956Z,22.54
2017-01-27T02:51:12.357Z,22.63
2017-01-27T02:51:32.121Z,22.72
2017-01-27T02:51:51.936Z,22.68
2017-01-27T02:52:11.746Z,22.68
2017-01-27T02:52:31.535Z,22.62
2017-01-27T02:52:51.924Z,22.72
2017-01-27T02:53:11.683Z,22.69
2017-01-27T02:53:31.460Z,22.65
2017-01-27T02:53:51.875Z,22.62
2017-01-27T02:54:11.593Z,22.72
2017-01-27T02:54:31.333Z,22.67
2017-01-27T02:54:51.740Z,22.65
2017-01-27T02:55:11.525Z,22.68
2017-01-27T02:55:31.291Z,22.67
2017-01-27T02:55:51.707Z,22.67
2017-01-27T02:56:10.828Z,22.65
2017-01-27T02:56:31.235Z,22.71
2017-01-27T02:56:51.633Z,22.65
2017-01-27T02:57:12.053Z,22.65
2017-01-27T02:57:32.505Z,22.68
2017-01-27T02:57:52.922Z,22.54
2017-01-27T02:58:13.321Z,22.65
2017-01-27T02:58:33.076Z,22.68
2017-01-27T02:58:52.850Z,22.65
2017-01-27T02:59:13.240Z,22.68
2017-01-27T02:59:33.006Z,22.59
2017-01-27T02:59:53.424Z,22.65
2017-01-27T03:00:13.820Z,22.68
2017-01-27T03:00:34.219Z,22.54
2017-01-27T03:00:53.976Z,22.65
2017-01-27T03:01:14.383Z,22.56
2017-01-27T03:01:34.796Z,22.59
2017-01-27T03:01:55.168Z,22.68
2017-01-27T03:02:14.919Z,22.65
2017-01-27T03:02:35.306Z,22.68
2017-01-27T03:02:55.723Z,22.69
2017-01-27T03:03:15.482Z,22.71
2017-01-27T03:03:35.894Z,22.72
2017-01-27T03:03:56.249Z,22.65
2017-01-27T03:04:16.670Z,22.79
2017-01-27T03:04:37.076Z,22.71
2017-01-27T03:04:57.498Z,22.72
2017-01-27T03:05:17.293Z,22.75
2017-01-27T03:05:37.685Z,22.75
2017-01-27T03:05:57.427Z,22.86
2017-01-27T03:06:17.888Z,22.78
2017-01-27T03:06:37.600Z,22.75
2017-01-27T03:06:58.025Z,22.71
2017-01-27T03:07:17.787Z,22.72
2017-01-27T03:07:37.542Z,22.63
2017-01-27T03:07:57.939Z,22.68
2017-01-27T03:08:17.665Z,22.59
2017-01-27T03:08:37.410Z,22.56
2017-01-27T03:08:57.790Z,22.54
2017-01-27T03:09:18.178Z,22.56
2017-01-27T03:09:37.942Z,22.63
2017-01-27T03:09:57.713Z,22.54
2017-01-27T03:10:18.140Z,22.56
2017-01-27T03:10:38.515Z,22.52
2017-01-27T03:10:58.921Z,22.57
2017-01-27T03:11:19.353Z,22.57
2017-01-27T03:11:39.770Z,22.57
2017-01-27T03:12:00.192Z,22.56
2017-01-27T03:12:20.560Z,22.6
2017-01-27T03:12:40.962Z,22.69
2017-01-27T03:13:01.352Z,22.71
2017-01-27T03:13:21.797Z,22.72
2017-01-27T03:13:41.565Z,22.77
2017-01-27T03:14:01.317Z,22.72
2017-01-27T03:14:21.713Z,22.78
2017-01-27T03:14:41.473Z,22.77
2017-01-27T03:15:01.870Z,22.77
2017-01-27T03:15:22.272Z,22.77
2017-01-27T03:15:42.655Z,22.84
2017-01-27T03:16:03.047Z,22.75
2017-01-27T03:16:22.797Z,22.84
2017-01-27T03:16:43.194Z,22.92
2017-01-27T03:17:03.589Z,22.79
2017-01-27T03:17:24.017Z,22.87
2017-01-27T03:17:44.391Z,22.89
2017-01-27T03:18:03.497Z,22.93
2017-01-27T03:18:23.284Z,22.93
2017-01-27T03:18:43.673Z,22.92
2017-01-27T03:19:04.065Z,22.83
2017-01-27T03:19:24.512Z,22.9
2017-01-27T03:19:44.287Z,22.89
2017-01-27T03:20:04.665Z,22.86
2017-01-27T03:20:25.065Z,22.87
2017-01-27T03:20:44.781Z,22.78
2017-01-27T03:21:05.200Z,22.71
2017-01-27T03:21:25.614Z,22.77
2017-01-27T03:21:46.028Z,22.74
2017-01-27T03:22:06.410Z,22.67
2017-01-27T03:22:26.200Z,22.72
2017-01-27T03:22:46.597Z,22.68
2017-01-27T03:23:06.997Z,22.67
2017-01-27T03:23:27.376Z,22.71
2017-01-27T03:23:47.116Z,22.65
2017-01-27T03:24:07.512Z,22.67
2017-01-27T03:24:27.950Z,22.63
2017-01-27T03:24:48.407Z,22.68
2017-01-27T03:25:08.808Z,22.71
2017-01-27T03:25:28.592Z,22.68
2017-01-27T03:25:48.526Z,22.74
2017-01-27T03:26:08.272Z,22.71
2017-01-27T03:26:28.681Z,22.77
2017-01-27T03:26:49.092Z,22.72
2017-01-27T03:27:08.200Z,22.69
2017-01-27T03:27:28.637Z,22.63
2017-01-27T03:27:49.007Z,22.68
2017-01-27T03:28:09.405Z,22.62
2017-01-27T03:28:29.777Z,22.65
2017-01-27T03:28:49.540Z,22.68
2017-01-27T03:29:09.949Z,22.67
2017-01-27T03:29:29.703Z,22.6
2017-01-27T03:29:49.466Z,22.68
2017-01-27T03:30:09.245Z,22.75
2017-01-27T03:30:28.975Z,22.75
2017-01-27T03:30:49.642Z,22.75
2017-01-27T03:31:09.415Z,22.75
2017-01-27T03:31:29.183Z,22.78
2017-01-27T03:31:49.598Z,22.78
2017-01-27T03:32:10.011Z,22.75
2017-01-27T03:32:29.792Z,22.78
2017-01-27T03:32:50.203Z,22.89
2017-01-27T03:33:10.620Z,22.87
2017-01-27T03:33:30.385Z,22.9
2017-01-27T03:33:50.817Z,22.9
2017-01-27T03:34:11.230Z,22.79
2017-01-27T03:34:31.026Z,22.78
2017-01-27T03:34:51.437Z,22.71
2017-01-27T03:35:11.186Z,22.69
2017-01-27T03:35:31.593Z,22.53
2017-01-27T03:35:51.996Z,22.6
2017-01-27T03:36:11.775Z,22.53
2017-01-27T03:36:32.152Z,22.49
2017-01-27T03:36:52.521Z,22.44
2017-01-27T03:37:12.963Z,22.42
2017-01-27T03:37:33.373Z,22.49
2017-01-27T03:37:53.759Z,22.47
2017-01-27T03:38:14.161Z,22.49
2017-01-27T03:38:34.594Z,22.35
2017-01-27T03:38:54.406Z,22.39
2017-01-27T03:39:14.826Z,22.37
2017-01-27T03:39:35.245Z,22.31
2017-01-27T03:39:55.635Z,22.26
2017-01-27T03:40:16.029Z,22.3
2017-01-27T03:40:36.457Z,22.2
2017-01-27T03:40:55.588Z,22.32
2017-01-27T03:41:15.979Z,22.31
2017-01-27T03:41:36.372Z,22.31
2017-01-27T03:41:56.157Z,22.26
2017-01-27T03:42:15.288Z,22.3
2017-01-27T03:42:35.705Z,22.31
2017-01-27T03:42:55.430Z,22.34
2017-01-27T03:43:15.178Z,22.34
2017-01-27T03:43:35.570Z,22.38
2017-01-27T03:43:55.339Z,22.34
2017-01-27T03:44:15.743Z,22.39
2017-01-27T03:44:36.242Z,22.41
2017-01-27T03:45:11.359Z,22.37
2017-01-27T03:45:31.800Z,22.42
2017-01-27T03:45:52.215Z,22.47
2017-01-27T03:46:11.992Z,22.46
2017-01-27T03:46:32.424Z,22.47
2017-01-27T03:46:52.827Z,22.53
2017-01-27T03:47:11.923Z,22.46
2017-01-27T03:47:31.711Z,22.47
2017-01-27T03:47:52.102Z,22.47
2017-01-27T03:48:11.874Z,22.53
2017-01-27T03:48:31.632Z,22.56
2017-01-27T03:48:52.012Z,22.54
2017-01-27T03:49:11.747Z,22.53
2017-01-27T03:49:31.513Z,22.53
2017-01-27T03:49:51.931Z,22.59
2017-01-27T03:50:11.712Z,22.59
2017-01-27T03:50:30.811Z,22.56
2017-01-27T03:50:51.228Z,22.62
2017-01-27T03:51:11.648Z,22.54
2017-01-27T03:51:32.040Z,22.57
2017-01-27T03:51:52.408Z,22.54
2017-01-27T03:52:12.184Z,22.62
2017-01-27T03:52:31.280Z,22.6
2017-01-27T03:52:51.682Z,22.56
2017-01-27T03:53:11.439Z,22.62
2017-01-27T03:53:30.582Z,22.59
2017-01-27T03:53:50.993Z,22.5
2017-01-27T03:54:11.386Z,22.54
2017-01-27T03:54:30.498Z,22.57
2017-01-27T03:54:50.925Z,22.57
2017-01-27T03:55:10.711Z,22.68
2017-01-27T03:55:31.102Z,22.59
2017-01-27T03:55:51.537Z,22.67
2017-01-27T03:56:11.917Z,22.62
2017-01-27T03:56:31.020Z,22.62
2017-01-27T03:56:51.404Z,22.63
2017-01-27T03:57:11.188Z,22.62
2017-01-27T03:57:30.930Z,22.74
2017-01-27T03:57:51.328Z,22.68
2017-01-27T03:58:11.709Z,22.69
2017-01-27T03:58:32.127Z,22.6
2017-01-27T03:58:51.883Z,22.63
2017-01-27T03:59:12.268Z,22.68
2017-01-27T03:59:32.672Z,22.74
2017-01-27T03:59:53.083Z,22.71
2017-01-27T04:00:13.486Z,22.72
2017-01-27T04:00:33.879Z,22.77
2017-01-27T04:00:54.527Z,22.72
2017-01-27T04:01:14.919Z,22.75
2017-01-27T04:01:35.343Z,22.69
2017-01-27T04:01:55.129Z,22.71
2017-01-27T04:02:14.949Z,22.79
2017-01-27T04:02:35.389Z,22.77
2017-01-27T04:02:55.152Z,22.77
2017-01-27T04:03:14.908Z,22.75
2017-01-27T04:03:35.363Z,22.75
2017-01-27T04:03:55.736Z,22.77
2017-01-27T04:04:15.510Z,22.78
2017-01-27T04:04:35.895Z,22.72
2017-01-27T04:04:56.287Z,22.75
2017-01-27T04:05:30.465Z,22.72
2017-01-27T04:05:50.204Z,22.63
2017-01-27T04:06:10.605Z,22.57
2017-01-27T04:06:30.377Z,22.6
2017-01-27T04:06:50.782Z,22.54
2017-01-27T04:07:10.545Z,22.47
2017-01-27T04:07:30.980Z,22.44
2017-01-27T04:07:51.397Z,22.37
2017-01-27T04:08:11.131Z,22.37
2017-01-27T04:08:31.536Z,22.31
2017-01-27T04:08:51.938Z,22.32
2017-01-27T04:09:11.682Z,22.32
2017-01-27T04:09:30.796Z,22.26
2017-01-27T04:09:51.176Z,22.28
2017-01-27T04:10:11.610Z,22.23
2017-01-27T04:10:32.382Z,22.26
2017-01-27T04:10:52.788Z,22.23
2017-01-27T04:11:12.568Z,22.17
2017-01-27T04:11:32.987Z,22.15
2017-01-27T04:11:53.406Z,22.19
2017-01-27T04:12:13.842Z,22.19
2017-01-27T04:12:34.242Z,22.13
2017-01-27T04:12:54.707Z,22.15
2017-01-27T04:13:15.136Z,22.1
2017-01-27T04:13:35.535Z,22.08
2017-01-27T04:13:54.675Z,22.13
2017-01-27T04:14:15.128Z,22.05
2017-01-27T04:14:35.561Z,22.08
2017-01-27T04:14:55.302Z,22.16
2017-01-27T04:15:15.087Z,22.05
2017-01-27T04:15:34.834Z,22.04
2017-01-27T04:15:54.586Z,22.07
2017-01-27T04:16:14.989Z,22.01
2017-01-27T04:16:35.441Z,22.05
2017-01-27T04:16:55.901Z,22.05
2017-01-27T04:17:16.515Z,22.05
2017-01-27T04:17:36.315Z,22.04
2017-01-27T04:17:56.709Z,22.07
2017-01-27T04:18:17.107Z,22.05
2017-01-27T04:18:37.494Z,22.07
2017-01-27T04:18:57.906Z,22.07
2017-01-27T04:19:18.363Z,22.07
2017-01-27T04:19:38.105Z,22.07
2017-01-27T04:19:56.566Z,22.1
2017-01-27T04:20:16.364Z,22.05
2017-01-27T04:20:36.772Z,22.07
2017-01-27T04:20:56.533Z,22.2